createdAt,value
2019-01-18T00:00:54.045Z,19.90
2019-01-18T00:01:54.022Z,19.90
2019-01-18T00:02:53.998Z,19.50
2019-01-18T00:03:53.992Z,19.30
2019-01-18T00:04:54.002Z,19.50
2019-01-18T00:05:53.985Z,19.20
2019-01-18T00:06:53.971Z,20.30
2019-01-18T00:07:53.985Z,19.90
2019-01-18T00:08:53.979Z,18.90
2019-01-18T00:09:53.954Z,20.50
2019-01-18T00:10:53.965Z,18.90
2019-01-18T00:11:53.955Z,20.50
2019-01-18T00:12:53.944Z,19.60
2019-01-18T00:13:53.942Z,18.60
2019-01-18T00:14:53.930Z,19.70
2019-01-18T00:15:53.925Z,19.50
2019-01-18T00:16:53.911Z,19.40
2019-01-18T00:17:53.919Z,19.00
2019-01-18T00:18:53.889Z,19.40
2019-01-18T00:19:53.897Z,19.70
2019-01-18T00:20:54.078Z,19.20
2019-01-18T00:21:53.871Z,18.90
2019-01-18T00:22:53.873Z,19.60
2019-01-18T00:23:53.858Z,20.10
2019-01-18T00:24:53.876Z,19.90
2019-01-18T00:25:53.856Z,19.70
2019-01-18T00:26:54.041Z,19.50
2019-01-18T00:27:53.824Z,19.10
2019-01-18T00:28:53.835Z,19.80
2019-01-18T00:29:53.821Z,19.50
2019-01-18T00:30:53.806Z,19.00
2019-01-18T00:31:54.004Z,18.80
2019-01-18T00:32:53.791Z,18.30
2019-01-18T00:33:53.790Z,20.10
2019-01-18T00:34:53.775Z,19.60
2019-01-18T00:35:53.768Z,20.40
2019-01-18T00:36:53.776Z,19.30
2019-01-18T00:37:53.779Z,20.50
2019-01-18T00:38:53.747Z,19.60
2019-01-18T00:39:53.951Z,20.90
2019-01-18T00:40:53.746Z,19.30
2019-01-18T00:41:53.739Z,19.50
2019-01-18T00:42:53.718Z,19.70
2019-01-18T00:43:53.716Z,20.20
2019-01-18T00:44:53.733Z,20.80
2019-01-18T00:45:53.701Z,21.10
2019-01-18T00:46:53.706Z,20.80
2019-01-18T00:47:53.687Z,20.60
2019-01-18T00:48:53.688Z,19.80
2019-01-18T00:49:53.669Z,20.90
2019-01-18T00:50:53.663Z,20.10
2019-01-18T00:51:53.673Z,21.50
2019-01-18T00:52:53.647Z,21.00
2019-01-18T00:53:53.648Z,21.00
2019-01-18T00:54:53.642Z,22.00
2019-01-18T00:55:53.626Z,21.30
2019-01-18T00:56:53.825Z,22.80
2019-01-18T00:57:53.833Z,21.30
2019-01-18T00:58:53.809Z,22.70
2019-01-18T00:59:53.820Z,21.50
2019-01-18T01:00:53.598Z,22.00
2019-01-18T01:01:53.600Z,22.90
2019-01-18T01:02:53.586Z,21.30
2019-01-18T01:03:53.778Z,21.80
2019-01-18T01:04:53.580Z,21.60
2019-01-18T01:05:53.575Z,21.50
2019-01-18T01:06:53.552Z,21.50
2019-01-18T01:07:53.547Z,22.50
2019-01-18T01:08:53.745Z,21.80
2019-01-18T01:09:53.535Z,20.90
2019-01-18T01:10:53.542Z,20.50
2019-01-18T01:11:53.724Z,19.70
2019-01-18T01:12:53.525Z,20.60
2019-01-18T01:13:53.716Z,21.00
2019-01-18T01:14:53.498Z,19.70
2019-01-18T01:15:53.486Z,20.00
2019-01-18T01:16:53.698Z,19.40
2019-01-18T01:17:53.474Z,20.30
2019-01-18T01:18:53.666Z,20.70
2019-01-18T01:19:53.664Z,19.80
2019-01-18T01:20:53.453Z,20.30
2019-01-18T01:21:53.653Z,18.80
2019-01-18T01:22:53.454Z,19.50
2019-01-18T01:23:53.428Z,18.90
2019-01-18T01:24:53.430Z,19.00
2019-01-18T01:25:53.417Z,18.10
2019-01-18T01:26:53.419Z,18.00
2019-01-18T01:27:53.618Z,18.50
2019-01-18T01:28:53.404Z,17.60
2019-01-18T01:29:53.395Z,17.40
2019-01-18T01:30:53.401Z,17.40
2019-01-18T01:31:53.402Z,16.90
2019-01-18T01:32:53.395Z,17.50
2019-01-18T01:33:53.372Z,16.80
2019-01-18T01:34:53.354Z,16.40
2019-01-18T01:35:53.352Z,17.00
2019-01-18T01:36:53.338Z,16.50
2019-01-18T01:37:53.532Z,16.60
2019-01-18T01:38:53.334Z,17.40
2019-01-18T01:39:53.317Z,17.00
2019-01-18T01:40:53.311Z,16.90
2019-01-18T01:41:53.321Z,16.60
2019-01-18T01:42:53.502Z,17.10
2019-01-18T01:43:53.285Z,16.60
2019-01-18T01:44:53.280Z,16.10
2019-01-18T01:45:53.277Z,17.10
2019-01-18T01:46:53.283Z,16.00
2019-01-18T01:47:53.265Z,15.90
2019-01-18T01:48:53.469Z,16.00
2019-01-18T01:49:53.456Z,15.90
2019-01-18T01:50:53.447Z,16.10
2019-01-18T01:51:53.250Z,14.80
2019-01-18T01:52:53.443Z,15.90
2019-01-18T01:53:53.215Z,16.20
2019-01-18T01:54:53.214Z,16.10
2019-01-18T01:55:53.405Z,15.20
2019-01-18T01:56:53.193Z,15.30
2019-01-18T01:57:53.401Z,16.00
2019-01-18T01:58:53.404Z,15.80
2019-01-18T01:59:53.381Z,16.20
2019-01-18T02:00:53.179Z,15.90
2019-01-18T02:01:53.183Z,16.80
2019-01-18T02:02:53.367Z,15.30
2019-01-18T02:03:53.152Z,15.20
2019-01-18T02:04:53.144Z,17.00
2019-01-18T02:05:53.143Z,17.90
2019-01-18T02:06:53.158Z,16.40
2019-01-18T02:07:53.131Z,18.30
2019-01-18T02:08:53.340Z,18.80
2019-01-18T02:09:53.124Z,17.50
2019-01-18T02:10:53.307Z,17.60
2019-01-18T02:11:53.102Z,17.40
2019-01-18T02:12:53.089Z,19.10
2019-01-18T02:13:53.286Z,18.00
2019-01-18T02:14:53.071Z,19.60
2019-01-18T02:15:53.059Z,19.30
2019-01-18T02:16:53.077Z,19.20
2019-01-18T02:17:53.047Z,19.50
2019-01-18T02:18:53.063Z,19.70
2019-01-18T02:19:53.033Z,19.60
2019-01-18T02:20:53.028Z,20.00
2019-01-18T02:21:53.236Z,20.20
2019-01-18T02:22:53.009Z,19.50
2019-01-18T02:23:53.016Z,20.00
2019-01-18T02:24:53.004Z,19.60
2019-01-18T02:25:53.003Z,19.60
2019-01-18T02:26:52.986Z,20.80
2019-01-18T02:27:52.987Z,21.40
2019-01-18T02:28:52.973Z,20.60
2019-01-18T02:29:56.588Z,21.20
2019-01-18T02:30:52.954Z,20.20
2019-01-18T02:31:52.952Z,19.70
2019-01-18T02:32:53.139Z,20.00
2019-01-18T02:33:52.934Z,20.80
2019-01-18T02:34:53.129Z,20.40
2019-01-18T02:35:53.133Z,21.60
2019-01-18T02:36:52.908Z,20.80
2019-01-18T02:37:52.938Z,21.70
2019-01-18T02:38:52.900Z,20.60
2019-01-18T02:39:52.902Z,21.50
2019-01-18T02:40:52.884Z,20.60
2019-01-18T02:41:52.877Z,22.30
2019-01-18T02:42:52.882Z,20.70
2019-01-18T02:43:52.875Z,22.40
2019-01-18T02:44:52.852Z,22.00
2019-01-18T02:45:52.857Z,21.80
2019-01-18T02:46:52.846Z,22.20
2019-01-18T02:47:52.834Z,21.50
2019-01-18T02:48:52.833Z,21.00
2019-01-18T02:49:52.835Z,20.60
2019-01-18T02:50:53.012Z,21.20
2019-01-18T02:51:52.803Z,22.00
2019-01-18T02:52:52.791Z,21.80
2019-01-18T02:53:52.805Z,22.60
2019-01-18T02:54:52.982Z,22.70
2019-01-18T02:55:52.777Z,22.60
2019-01-18T02:56:52.770Z,22.00
2019-01-18T02:57:52.756Z,22.90
2019-01-18T02:58:52.953Z,21.60
2019-01-18T02:59:52.966Z,21.20
2019-01-18T03:00:52.743Z,20.50
2019-01-18T03:01:52.728Z,21.60
2019-01-18T03:02:52.740Z,22.50
2019-01-18T03:03:52.726Z,20.70
2019-01-18T03:04:52.710Z,21.20
2019-01-18T03:05:52.715Z,21.50
2019-01-18T03:06:52.699Z,20.90
2019-01-18T03:07:52.691Z,21.10
2019-01-18T03:08:52.882Z,22.20
2019-01-18T03:09:52.684Z,22.20
2019-01-18T03:10:52.672Z,21.90
2019-01-18T03:11:52.661Z,21.50
2019-01-18T03:12:52.656Z,22.10
2019-01-18T03:13:52.846Z,22.10
2019-01-18T03:14:52.849Z,22.40
2019-01-18T03:15:52.627Z,22.10
2019-01-18T03:16:52.621Z,21.80
2019-01-18T03:17:52.619Z,21.10
2019-01-18T03:18:52.810Z,22.00
2019-01-18T03:19:52.616Z,21.80
2019-01-18T03:20:52.596Z,21.80
2019-01-18T03:21:52.590Z,21.90
2019-01-18T03:22:52.783Z,21.20
2019-01-18T03:23:52.775Z,22.40
2019-01-18T03:24:52.573Z,21.40
2019-01-18T03:25:52.566Z,21.10
2019-01-18T03:26:52.567Z,22.10
2019-01-18T03:27:52.551Z,21.60
2019-01-18T03:28:52.749Z,20.90
2019-01-18T03:29:52.536Z,22.10
2019-01-18T03:30:52.520Z,21.40
2019-01-18T03:31:52.522Z,21.00
2019-01-18T03:32:52.514Z,20.40
2019-01-18T03:33:52.512Z,22.20
2019-01-18T03:34:52.498Z,20.20
2019-01-18T03:35:52.500Z,20.60
2019-01-18T03:36:52.480Z,20.70
2019-01-18T03:37:52.484Z,20.90
2019-01-18T03:38:52.470Z,20.50
2019-01-18T03:39:52.467Z,20.70
2019-01-18T03:40:52.454Z,21.30
2019-01-18T03:41:52.449Z,21.70
2019-01-18T03:42:52.447Z,20.60
2019-01-18T03:43:52.439Z,21.10
2019-01-18T03:44:52.428Z,21.20
2019-01-18T03:45:52.435Z,20.20
2019-01-18T03:46:52.424Z,21.40
2019-01-18T03:47:52.420Z,19.80
2019-01-18T03:48:52.597Z,20.60
2019-01-18T03:49:52.391Z,22.10
2019-01-18T03:50:52.387Z,21.70
2019-01-18T03:51:52.388Z,21.70
2019-01-18T03:52:52.591Z,20.60
2019-01-18T03:53:52.388Z,21.10
2019-01-18T03:54:52.563Z,22.10
2019-01-18T03:55:52.555Z,21.10
2019-01-18T03:56:52.561Z,21.10
2019-01-18T03:57:52.353Z,21.30
2019-01-18T03:58:52.349Z,20.80
2019-01-18T03:59:52.345Z,21.20
2019-01-18T04:00:52.327Z,21.10
2019-01-18T04:01:52.326Z,20.90
2019-01-18T04:02:52.336Z,22.40
2019-01-18T04:03:52.503Z,22.60
2019-01-18T04:04:52.519Z,21.60
2019-01-18T04:05:52.301Z,21.60
2019-01-18T04:06:52.279Z,20.60
2019-01-18T04:07:52.273Z,21.70
2019-01-18T04:08:52.475Z,21.60
2019-01-18T04:09:52.259Z,21.00
2019-01-18T04:10:52.246Z,20.70
2019-01-18T04:11:52.263Z,21.40
2019-01-18T04:12:52.243Z,21.50
2019-01-18T04:13:52.234Z,22.20
2019-01-18T04:14:52.233Z,22.10
2019-01-18T04:15:52.441Z,22.40
2019-01-18T04:16:52.221Z,22.10
2019-01-18T04:17:52.219Z,21.70
2019-01-18T04:18:52.425Z,22.50
2019-01-18T04:19:52.201Z,22.20
2019-01-18T04:20:52.181Z,22.00
2019-01-18T04:21:52.384Z,23.10
2019-01-18T04:22:52.165Z,21.20
2019-01-18T04:23:52.159Z,21.20
2019-01-18T04:24:52.167Z,21.70
2019-01-18T04:25:52.162Z,19.60
2019-01-18T04:26:52.152Z,19.50
2019-01-18T04:27:52.355Z,19.20
2019-01-18T04:28:52.131Z,19.20
2019-01-18T04:29:52.324Z,17.40
2019-01-18T04:30:52.126Z,19.90
2019-01-18T04:31:52.102Z,20.40
2019-01-18T04:32:52.102Z,21.60
2019-01-18T04:33:52.114Z,22.60
2019-01-18T04:34:52.089Z,20.70
2019-01-18T04:35:52.299Z,20.70
2019-01-18T04:36:52.068Z,19.70
2019-01-18T04:37:52.079Z,20.70
2019-01-18T04:38:52.059Z,20.00
2019-01-18T04:39:52.263Z,20.70
2019-01-18T04:40:52.060Z,20.60
2019-01-18T04:41:52.040Z,21.50
2019-01-18T04:42:52.038Z,22.00
2019-01-18T04:43:52.022Z,21.60
2019-01-18T04:44:52.229Z,21.00
2019-01-18T04:45:52.029Z,20.50
2019-01-18T04:46:52.217Z,19.80
2019-01-18T04:47:51.997Z,19.40
2019-01-18T04:48:52.198Z,20.20
2019-01-18T04:49:51.995Z,21.50
2019-01-18T04:50:51.978Z,21.20
2019-01-18T04:51:51.988Z,23.20
2019-01-18T04:52:51.972Z,21.20
2019-01-18T04:53:51.970Z,23.40
2019-01-18T04:54:51.988Z,22.30
2019-01-18T04:55:51.943Z,23.10
2019-01-18T04:56:51.939Z,23.60
2019-01-18T04:57:51.929Z,23.70
2019-01-18T04:58:51.931Z,24.80
2019-01-18T04:59:51.918Z,23.90
2019-01-18T05:00:51.921Z,23.00
2019-01-18T05:01:51.911Z,22.50
2019-01-18T05:02:51.907Z,22.30
2019-01-18T05:03:51.895Z,24.20
2019-01-18T05:04:51.902Z,24.50
2019-01-18T05:05:51.893Z,26.10
2019-01-18T05:06:51.884Z,26.50
2019-01-18T05:07:51.877Z,26.20
2019-01-18T05:08:51.877Z,25.10
2019-01-18T05:09:51.865Z,25.50
2019-01-18T05:10:51.849Z,24.70
2019-01-18T05:11:51.840Z,25.60
2019-01-18T05:12:51.834Z,25.90
2019-01-18T05:13:52.045Z,26.60
2019-01-18T05:14:51.819Z,26.60
2019-01-18T05:15:52.031Z,25.50
2019-01-18T05:16:51.869Z,24.80
2019-01-18T05:17:51.808Z,26.20
2019-01-18T05:18:51.797Z,26.30
2019-01-18T05:19:51.790Z,26.20
2019-01-18T05:20:51.780Z,26.20
2019-01-18T05:21:51.778Z,25.70
2019-01-18T05:22:51.770Z,25.40
2019-01-18T05:23:51.763Z,27.80
2019-01-18T05:24:51.966Z,27.90
2019-01-18T05:25:51.760Z,26.50
2019-01-18T05:26:51.737Z,25.00
2019-01-18T05:27:51.733Z,26.50
2019-01-18T05:28:51.736Z,25.70
2019-01-18T05:29:51.727Z,26.30
2019-01-18T05:30:51.921Z,26.90
2019-01-18T05:31:51.704Z,25.70
2019-01-18T05:32:51.905Z,27.40
2019-01-18T05:33:51.897Z,27.10
2019-01-18T05:34:51.692Z,27.90
2019-01-18T05:35:51.678Z,27.70
2019-01-18T05:36:51.673Z,28.80
2019-01-18T05:37:51.869Z,29.30
2019-01-18T05:38:51.662Z,29.70
2019-01-18T05:39:51.652Z,30.60
2019-01-18T05:40:51.694Z,29.80
2019-01-18T05:41:51.637Z,29.90
2019-01-18T05:42:51.629Z,29.90
2019-01-18T05:43:51.624Z,29.40
2019-01-18T05:44:51.616Z,29.60
2019-01-18T05:45:51.617Z,28.20
2019-01-18T05:46:51.614Z,29.10
2019-01-18T05:47:51.600Z,29.80
2019-01-18T05:48:51.595Z,30.20
2019-01-18T05:49:51.588Z,29.10
2019-01-18T05:50:51.593Z,29.50
2019-01-18T05:51:51.572Z,28.30
2019-01-18T05:52:51.569Z,27.30
2019-01-18T05:53:51.570Z,27.30
2019-01-18T05:54:51.562Z,28.10
2019-01-18T05:55:51.552Z,30.20
2019-01-18T05:56:51.556Z,29.10
2019-01-18T05:57:51.540Z,29.20
2019-01-18T05:58:51.535Z,30.70
2019-01-18T05:59:51.533Z,29.60
2019-01-18T06:00:55.348Z,29.70
2019-01-18T06:01:51.503Z,25.60
2019-01-18T06:02:51.495Z,26.00
2019-01-18T06:03:51.491Z,26.50
2019-01-18T06:04:51.485Z,26.60
2019-01-18T06:05:51.491Z,25.80
2019-01-18T06:06:51.469Z,24.20
2019-01-18T06:07:51.474Z,23.30
2019-01-18T06:08:51.466Z,23.10
2019-01-18T06:09:51.457Z,24.10
2019-01-18T06:10:51.445Z,22.10
2019-01-18T06:11:51.439Z,24.70
2019-01-18T06:12:51.435Z,24.00
2019-01-18T06:13:51.425Z,24.00
2019-01-18T06:14:51.424Z,25.80
2019-01-18T06:15:51.613Z,27.60
2019-01-18T06:16:51.404Z,27.40
2019-01-18T06:17:51.397Z,28.10
2019-01-18T06:18:51.390Z,27.90
2019-01-18T06:19:51.381Z,28.60
2019-01-18T06:20:51.371Z,29.30
2019-01-18T06:21:51.370Z,29.20
2019-01-18T06:22:51.366Z,29.80
2019-01-18T06:23:51.365Z,29.60
2019-01-18T06:24:51.365Z,29.40
2019-01-18T06:25:51.342Z,27.60
2019-01-18T06:26:51.344Z,28.20
2019-01-18T06:27:51.349Z,28.80
2019-01-18T06:28:51.316Z,28.50
2019-01-18T06:29:51.311Z,28.80
2019-01-18T06:30:51.316Z,29.70
2019-01-18T06:31:51.303Z,29.50
2019-01-18T06:32:51.491Z,29.50
2019-01-18T06:33:51.279Z,32.30
2019-01-18T06:34:51.294Z,31.00
2019-01-18T06:35:51.263Z,30.90
2019-01-18T06:36:51.264Z,31.40
2019-01-18T06:37:51.458Z,30.20
2019-01-18T06:38:51.249Z,29.10
2019-01-18T06:39:51.246Z,28.30
2019-01-18T06:40:51.250Z,24.10
2019-01-18T06:41:51.230Z,23.80
2019-01-18T06:42:51.249Z,24.20
2019-01-18T06:43:51.223Z,24.00
2019-01-18T06:44:51.227Z,25.00
2019-01-18T06:45:51.421Z,25.00
2019-01-18T06:46:51.397Z,26.90
2019-01-18T06:47:51.204Z,25.40
2019-01-18T06:48:51.175Z,25.00
2019-01-18T06:49:51.173Z,26.10
2019-01-18T06:50:51.163Z,28.00
2019-01-18T06:51:51.350Z,27.70
2019-01-18T06:52:51.146Z,28.30
2019-01-18T06:53:51.155Z,27.00
2019-01-18T06:54:51.154Z,26.90
2019-01-18T06:55:51.357Z,28.60
2019-01-18T06:56:51.129Z,28.90
2019-01-18T06:57:51.114Z,28.00
2019-01-18T06:58:51.125Z,27.50
2019-01-18T06:59:51.113Z,29.40
2019-01-18T07:00:51.104Z,30.00
2019-01-18T07:01:51.082Z,31.20
2019-01-18T07:02:51.075Z,31.30
2019-01-18T07:03:51.269Z,32.30
2019-01-18T07:04:51.267Z,32.10
2019-01-18T07:05:51.055Z,31.40
2019-01-18T07:06:51.053Z,28.30
2019-01-18T07:07:51.041Z,28.40
2019-01-18T07:08:51.028Z,27.80
2019-01-18T07:09:51.027Z,27.20
2019-01-18T07:10:51.044Z,27.30
2019-01-18T07:11:51.018Z,28.00
2019-01-18T07:12:51.024Z,27.90
2019-01-18T07:13:51.032Z,29.80
2019-01-18T07:14:51.042Z,29.20
2019-01-18T07:15:50.987Z,29.40
2019-01-18T07:16:51.196Z,30.20
2019-01-18T07:17:50.980Z,29.60
2019-01-18T07:18:51.175Z,29.30
2019-01-18T07:19:50.959Z,29.80
2019-01-18T07:20:50.973Z,28.50
2019-01-18T07:21:50.941Z,29.70
2019-01-18T07:22:50.949Z,29.40
2019-01-18T07:23:50.930Z,30.70
2019-01-18T07:24:50.920Z,28.10
2019-01-18T07:25:51.129Z,29.70
2019-01-18T07:26:50.917Z,25.90
2019-01-18T07:27:51.102Z,25.50
2019-01-18T07:28:51.808Z,25.50
2019-01-18T07:29:51.097Z,25.10
2019-01-18T07:30:50.874Z,26.60
2019-01-18T07:31:50.862Z,25.30
2019-01-18T07:32:50.865Z,27.60
2019-01-18T07:33:50.857Z,27.30
2019-01-18T07:34:50.850Z,29.50
2019-01-18T07:35:50.849Z,28.60
2019-01-18T07:36:50.835Z,28.40
2019-01-18T07:37:51.023Z,30.30
2019-01-18T07:38:50.819Z,28.40
2019-01-18T07:39:50.807Z,28.50
2019-01-18T07:40:50.806Z,29.70
2019-01-18T07:41:50.807Z,28.70
2019-01-18T07:42:50.790Z,25.80
2019-01-18T07:43:50.778Z,28.60
2019-01-18T07:44:50.777Z,29.70
2019-01-18T07:45:50.768Z,29.90
2019-01-18T07:46:50.762Z,27.90
2019-01-18T07:47:50.758Z,28.90
2019-01-18T07:48:50.745Z,31.40
2019-01-18T07:49:50.742Z,29.60
2019-01-18T07:50:50.757Z,28.80
2019-01-18T07:51:50.726Z,28.50
2019-01-18T07:52:50.712Z,28.60
2019-01-18T07:53:50.719Z,28.90
2019-01-18T07:54:50.708Z,29.10
2019-01-18T07:55:50.695Z,29.80
2019-01-18T07:56:50.689Z,27.90
2019-01-18T07:57:50.682Z,27.50
2019-01-18T07:58:50.677Z,29.00
2019-01-18T07:59:50.665Z,30.00
2019-01-18T08:00:50.877Z,27.90
2019-01-18T08:01:50.862Z,29.00
2019-01-18T08:02:50.660Z,28.00
2019-01-18T08:03:50.631Z,29.40
2019-01-18T08:04:50.630Z,28.50
2019-01-18T08:05:50.641Z,28.50
2019-01-18T08:06:50.614Z,27.70
2019-01-18T08:07:50.624Z,29.30
2019-01-18T08:08:50.610Z,27.30
2019-01-18T08:09:50.797Z,29.70
2019-01-18T08:10:50.602Z,30.20
2019-01-18T08:11:50.577Z,30.80
2019-01-18T08:12:50.783Z,30.20
2019-01-18T08:13:50.559Z,31.00
2019-01-18T08:14:50.554Z,29.90
2019-01-18T08:15:50.771Z,28.80
2019-01-18T08:16:50.741Z,28.00
2019-01-18T08:17:50.552Z,26.30
2019-01-18T08:18:50.523Z,27.30
2019-01-18T08:19:50.733Z,29.30
2019-01-18T08:20:50.524Z,27.70
2019-01-18T08:21:50.717Z,27.10
2019-01-18T08:22:50.498Z,28.30
2019-01-18T08:23:50.496Z,27.40
2019-01-18T08:24:50.495Z,29.20
2019-01-18T08:25:50.473Z,28.10
2019-01-18T08:26:50.481Z,28.90
2019-01-18T08:27:50.465Z,31.40
2019-01-18T08:28:50.457Z,31.40
2019-01-18T08:29:50.448Z,33.00
2019-01-18T08:30:50.640Z,32.60
2019-01-18T08:31:50.445Z,30.90
2019-01-18T08:32:50.421Z,32.40
2019-01-18T08:33:50.637Z,30.30
2019-01-18T08:34:50.409Z,30.50
2019-01-18T08:35:50.400Z,32.40
2019-01-18T08:36:50.393Z,31.10
2019-01-18T08:37:50.397Z,31.00
2019-01-18T08:38:50.380Z,31.00
2019-01-18T08:39:50.372Z,31.30
2019-01-18T08:40:50.375Z,32.30
2019-01-18T08:41:50.358Z,32.50
2019-01-18T08:42:50.364Z,32.20
2019-01-18T08:43:50.355Z,32.20
2019-01-18T08:44:50.343Z,33.20
2019-01-18T08:45:50.628Z,33.50
2019-01-18T08:46:50.323Z,35.10
2019-01-18T08:47:50.312Z,34.60
2019-01-18T08:48:50.539Z,34.30
2019-01-18T08:49:50.312Z,32.00
2019-01-18T08:50:50.301Z,36.50
2019-01-18T08:51:50.288Z,39.30
2019-01-18T08:52:50.527Z,38.60
2019-01-18T08:53:50.498Z,38.50
2019-01-18T08:54:50.278Z,39.10
2019-01-18T08:55:50.272Z,38.60
2019-01-18T08:56:50.251Z,36.60
2019-01-18T08:57:50.240Z,36.10
2019-01-18T08:58:50.276Z,38.10
2019-01-18T08:59:50.260Z,37.60
2019-01-18T09:00:50.428Z,36.70
2019-01-18T09:01:50.225Z,37.00
2019-01-18T09:02:50.221Z,37.90
2019-01-18T09:03:50.196Z,39.20
2019-01-18T09:04:50.193Z,36.50
2019-01-18T09:05:50.190Z,37.10
2019-01-18T09:06:50.178Z,38.60
2019-01-18T09:07:50.169Z,37.80
2019-01-18T09:08:50.378Z,38.60
2019-01-18T09:09:50.354Z,39.60
2019-01-18T09:10:50.148Z,39.50
2019-01-18T09:11:50.345Z,38.90
2019-01-18T09:12:50.141Z,41.80
2019-01-18T09:13:50.129Z,40.50
2019-01-18T09:14:50.117Z,38.20
2019-01-18T09:15:50.315Z,39.20
2019-01-18T09:16:50.122Z,37.90
2019-01-18T09:17:50.098Z,37.60
2019-01-18T09:18:50.098Z,38.70
2019-01-18T09:19:50.088Z,38.60
2019-01-18T09:20:50.082Z,39.70
2019-01-18T09:21:50.084Z,40.20
2019-01-18T09:22:50.063Z,39.20
2019-01-18T09:23:50.069Z,39.20
2019-01-18T09:24:50.050Z,39.70
2019-01-18T09:25:50.271Z,38.20
2019-01-18T09:26:50.250Z,38.50
2019-01-18T09:27:50.031Z,41.10
2019-01-18T09:28:50.023Z,42.50
2019-01-18T09:29:50.012Z,43.30
2019-01-18T09:30:50.017Z,42.50
2019-01-18T09:31:50.012Z,42.10
2019-01-18T09:32:49.998Z,42.30
2019-01-18T09:33:49.998Z,41.10
2019-01-18T09:34:49.982Z,42.00
2019-01-18T09:35:49.975Z,41.50
2019-01-18T09:36:49.967Z,43.10
2019-01-18T09:37:49.975Z,41.30
2019-01-18T09:38:50.156Z,42.50
2019-01-18T09:39:49.952Z,42.80
2019-01-18T09:40:49.947Z,42.80
2019-01-18T09:41:49.935Z,43.90
2019-01-18T09:42:49.952Z,44.70
2019-01-18T09:43:49.922Z,43.90
2019-01-18T09:44:49.911Z,43.40
2019-01-18T09:45:49.906Z,41.80
2019-01-18T09:46:49.911Z,43.00
2019-01-18T09:47:50.108Z,42.70
2019-01-18T09:48:50.102Z,42.70
2019-01-18T09:49:49.880Z,43.40
2019-01-18T09:50:49.892Z,41.00
2019-01-18T09:51:49.864Z,42.60
2019-01-18T09:52:50.060Z,41.10
2019-01-18T09:53:49.868Z,41.40
2019-01-18T09:54:49.866Z,41.40
2019-01-18T09:55:49.850Z,41.50
2019-01-18T09:56:49.843Z,42.50
2019-01-18T09:57:50.032Z,41.20
2019-01-18T09:58:49.814Z,41.20
2019-01-18T09:59:49.825Z,40.90
2019-01-18T10:00:49.809Z,42.60
2019-01-18T10:01:49.804Z,41.60
2019-01-18T10:02:49.798Z,41.50
2019-01-18T10:03:49.782Z,41.50
2019-01-18T10:04:49.794Z,41.50
2019-01-18T10:05:49.786Z,42.70
2019-01-18T10:06:49.763Z,41.00
2019-01-18T10:07:49.761Z,41.70
2019-01-18T10:08:49.761Z,41.70
2019-01-18T10:09:49.747Z,43.70
2019-01-18T10:10:49.741Z,41.60
2019-01-18T10:11:49.734Z,45.20
2019-01-18T10:12:49.750Z,44.10
2019-01-18T10:13:49.723Z,42.30
2019-01-18T10:14:49.717Z,40.40
2019-01-18T10:15:49.717Z,39.90
2019-01-18T10:16:49.930Z,39.60
2019-01-18T10:17:49.722Z,39.40
2019-01-18T10:18:49.703Z,39.90
2019-01-18T10:19:49.683Z,41.00
2019-01-18T10:20:49.672Z,40.20
2019-01-18T10:21:49.673Z,40.40
2019-01-18T10:22:49.666Z,40.70
2019-01-18T10:23:49.651Z,39.80
2019-01-18T10:24:49.850Z,40.50
2019-01-18T10:25:49.663Z,41.00
2019-01-18T10:26:49.643Z,41.50
2019-01-18T10:27:49.640Z,41.30
2019-01-18T10:28:49.629Z,41.00
2019-01-18T10:29:49.820Z,40.20
2019-01-18T10:30:49.811Z,39.60
2019-01-18T10:31:55.883Z,42.70
2019-01-18T10:32:49.607Z,40.30
2019-01-18T10:33:49.807Z,42.60
2019-01-18T10:35:49.583Z,42.50
2019-01-18T10:36:49.575Z,43.80
2019-01-18T10:37:49.565Z,43.00
2019-01-18T10:38:49.566Z,43.70
2019-01-18T10:39:49.565Z,45.10
2019-01-18T10:40:49.754Z,43.00
2019-01-18T10:41:49.540Z,41.90
2019-01-18T10:42:49.756Z,42.60
2019-01-18T10:43:49.536Z,45.50
2019-01-18T10:44:49.527Z,44.20
2019-01-18T10:45:49.514Z,45.70
2019-01-18T10:46:49.713Z,44.30
2019-01-18T10:47:49.500Z,42.20
2019-01-18T10:48:49.487Z,44.00
2019-01-18T10:49:49.484Z,43.20
2019-01-18T10:50:49.488Z,43.50
2019-01-18T10:51:49.471Z,44.80
2019-01-18T10:52:49.468Z,43.70
2019-01-18T10:53:49.484Z,43.40
2019-01-18T10:54:49.448Z,44.40
2019-01-18T10:55:49.643Z,45.10
2019-01-18T10:56:49.442Z,44.10
2019-01-18T10:57:49.447Z,43.20
2019-01-18T10:58:49.427Z,45.30
2019-01-18T10:59:49.645Z,44.10
2019-01-18T11:00:49.409Z,43.80
2019-01-18T11:01:49.405Z,45.00
2019-01-18T11:02:49.399Z,45.30
2019-01-18T11:03:49.394Z,45.40
2019-01-18T11:04:49.436Z,45.90
2019-01-18T11:05:49.391Z,45.10
2019-01-18T11:06:49.608Z,44.00
2019-01-18T11:07:49.364Z,45.30
2019-01-18T11:08:49.562Z,45.40
2019-01-18T11:09:49.377Z,45.70
2019-01-18T11:10:49.345Z,44.80
2019-01-18T11:11:49.338Z,44.90
2019-01-18T11:12:49.349Z,46.60
2019-01-18T11:13:49.328Z,47.30
2019-01-18T11:14:49.333Z,49.10
2019-01-18T11:15:49.319Z,49.20
2019-01-18T11:16:49.309Z,50.00
2019-01-18T11:17:49.502Z,50.70
2019-01-18T11:18:49.515Z,51.20
2019-01-18T11:19:49.281Z,51.60
2019-01-18T11:20:51.100Z,50.70
2019-01-18T11:21:49.283Z,50.00
2019-01-18T11:22:49.280Z,51.60
2019-01-18T11:23:49.476Z,50.50
2019-01-18T11:24:49.266Z,51.70
2019-01-18T11:25:49.267Z,52.20
2019-01-18T11:26:49.253Z,53.40
2019-01-18T11:27:49.432Z,52.80
2019-01-18T11:28:49.234Z,51.70
2019-01-18T11:29:49.450Z,50.50
2019-01-18T11:30:49.218Z,51.60
2019-01-18T11:31:49.210Z,52.10
2019-01-18T11:32:49.416Z,53.40
2019-01-18T11:33:49.191Z,52.90
2019-01-18T11:34:49.180Z,51.40
2019-01-18T11:35:49.390Z,52.60
2019-01-18T11:36:49.172Z,51.60
2019-01-18T11:37:49.364Z,51.70
2019-01-18T11:38:49.168Z,52.40
2019-01-18T11:39:49.154Z,51.90
2019-01-18T11:40:49.141Z,53.30
2019-01-18T11:41:49.347Z,54.10
2019-01-18T11:42:49.129Z,53.10
2019-01-18T11:43:49.135Z,53.70
2019-01-18T11:44:49.127Z,53.80
2019-01-18T11:45:49.114Z,53.30
2019-01-18T11:46:49.101Z,53.60
2019-01-18T11:47:49.108Z,54.20
2019-01-18T11:48:50.392Z,53.40
2019-01-18T11:49:49.087Z,51.90
2019-01-18T11:50:49.092Z,51.90
2019-01-18T11:51:49.096Z,51.00
2019-01-18T11:52:49.265Z,52.00
2019-01-18T11:53:49.056Z,52.70
2019-01-18T11:54:49.098Z,51.90
2019-01-18T11:55:49.042Z,51.90
2019-01-18T11:56:49.034Z,51.70
2019-01-18T11:57:49.039Z,51.10
2019-01-18T11:58:49.031Z,50.20
2019-01-18T11:59:50.549Z,51.10
2019-01-18T12:00:49.013Z,48.00
2019-01-18T12:01:49.010Z,51.40
2019-01-18T12:02:48.998Z,50.20
2019-01-18T12:03:48.977Z,51.90
2019-01-18T12:04:48.972Z,50.70
2019-01-18T12:05:48.978Z,51.70
2019-01-18T12:06:49.184Z,50.90
2019-01-18T12:07:49.165Z,50.10
2019-01-18T12:08:48.950Z,51.00
2019-01-18T12:09:48.954Z,50.90
2019-01-18T12:10:49.161Z,50.60
2019-01-18T12:11:48.933Z,53.20
2019-01-18T12:12:48.936Z,50.50
2019-01-18T12:13:49.580Z,49.50
2019-01-18T12:14:48.910Z,51.10
2019-01-18T12:15:48.912Z,50.10
2019-01-18T12:16:48.894Z,49.00
2019-01-18T12:17:48.888Z,51.90
2019-01-18T12:18:48.896Z,49.30
2019-01-18T12:19:49.079Z,50.30
2019-01-18T12:20:48.870Z,50.50
2019-01-18T12:21:49.074Z,48.80
2019-01-18T12:22:49.057Z,51.10
2019-01-18T12:23:48.866Z,50.70
2019-01-18T12:24:48.835Z,51.50
2019-01-18T12:25:48.829Z,51.70
2019-01-18T12:26:48.822Z,52.50
2019-01-18T12:27:48.844Z,51.40
2019-01-18T12:28:48.819Z,51.30
2019-01-18T12:29:49.021Z,50.60
2019-01-18T12:30:48.824Z,50.30
2019-01-18T12:31:48.792Z,51.00
2019-01-18T12:32:48.795Z,49.70
2019-01-18T12:33:48.772Z,50.30
2019-01-18T12:34:48.770Z,49.80
2019-01-18T12:35:48.773Z,48.80
2019-01-18T12:36:48.762Z,46.70
2019-01-18T12:37:48.751Z,48.30
2019-01-18T12:38:48.750Z,49.20
2019-01-18T12:39:48.742Z,49.20
2019-01-18T12:40:48.739Z,48.30
2019-01-18T12:41:48.757Z,47.70
2019-01-18T12:42:48.928Z,49.90
2019-01-18T12:43:48.939Z,49.60
2019-01-18T12:44:48.720Z,49.30
2019-01-18T12:45:48.701Z,48.90
2019-01-18T12:46:48.697Z,48.60
2019-01-18T12:47:48.689Z,50.10
2019-01-18T12:48:48.675Z,49.90
2019-01-18T12:49:48.667Z,50.70
2019-01-18T12:50:48.867Z,50.20
2019-01-18T12:51:48.654Z,50.30
2019-01-18T12:52:48.646Z,48.60
2019-01-18T12:53:48.638Z,47.40